sensor_id;sensor_type;location;lat;lon;timestamp;temperature;humidity
73438;DHT22;66471;56.532;21.020;2024-03-02T07:00:02;5.10;99.90
73438;DHT22;66471;56.532;21.020;2024-03-02T07:02:32;5.60;99.90
73438;DHT22;66471;56.532;21.020;2024-03-02T07:04:59;5.70;99.90
73438;DHT22;66471;56.532;21.020;2024-03-02T07:07:26;5.70;99.90
73438;DHT22;66471;56.532;21.020;2024-03-02T07:09:53;5.50;99.90
73438;DHT22;66471;56.532;21.020;2024-03-02T07:12:20;5.70;99.70
73438;DHT22;66471;56.532;21.020;2024-03-02T07:14:48;5.80;99.90
73438;DHT22;66471;56.532;21.020;2024-03-02T07:17:33;5.80;99.90
73438;DHT22;66471;56.532;21.020;2024-03-02T07:20:01;5.70;99.80
73438;DHT22;66471;56.532;21.020;2024-03-02T07:22:28;5.60;99.70
73438;DHT22;66471;56.532;21.020;2024-03-02T07:24:55;5.70;99.70
73438;DHT22;66471;56.532;21.020;2024-03-02T07:27:22;5.70;99.70
73438;DHT22;66471;56.532;21.020;2024-03-02T07:29:50;5.70;99.50
73438;DHT22;66471;56.532;21.020;2024-03-02T07:32:17;5.70;99.50
73438;DHT22;66471;56.532;21.020;2024-03-02T07:34:44;5.60;99.50
73438;DHT22;66471;56.532;21.020;2024-03-02T07:37:11;5.80;99.70
73438;DHT22;66471;56.532;21.020;2024-03-02T07:39:39;5.90;99.40
73438;DHT22;66471;56.532;21.020;2024-03-02T07:42:06;5.70;99.30
73438;DHT22;66471;56.532;21.020;2024-03-02T07:44:33;5.70;99.30
73438;DHT22;66471;56.532;21.020;2024-03-02T07:47:00;5.60;99.50
73438;DHT22;66471;56.532;21.020;2024-03-02T07:49:28;5.90;99.20
73438;DHT22;66471;56.532;21.020;2024-03-02T07:51:55;5.80;99.10
73438;DHT22;66471;56.532;21.020;2024-03-02T07:54:22;5.80;99.60
73438;DHT22;66471;56.532;21.020;2024-03-02T07:56:50;5.90;99.20
73438;DHT22;66471;56.532;21.020;2024-03-02T07:59:18;5.90;99.40
73438;DHT22;66471;56.532;21.020;2024-03-02T08:01:45;5.80;98.80
73438;DHT22;66471;56.532;21.020;2024-03-02T08:04:12;6.00;99.10
73438;DHT22;66471;56.532;21.020;2024-03-02T08:06:39;5.90;98.90
73438;DHT22;66471;56.532;21.020;2024-03-02T08:09:07;6.10;99.60
73438;DHT22;66471;56.532;21.020;2024-03-02T08:11:37;6.10;98.70
73438;DHT22;66471;56.532;21.020;2024-03-02T08:14:04;6.00;99.20
73438;DHT22;66471;56.532;21.020;2024-03-02T08:16:31;5.90;98.60
73438;DHT22;66471;56.532;21.020;2024-03-02T08:18:59;6.00;98.60
73438;DHT22;66471;56.532;21.020;2024-03-02T08:21:27;6.10;98.50
73438;DHT22;66471;56.532;21.020;2024-03-02T08:23:58;6.20;98.50
73438;DHT22;66471;56.532;21.020;2024-03-02T08:26:25;6.20;98.30
73438;DHT22;66471;56.532;21.020;2024-03-02T08:28:56;6.10;98.20
73438;DHT22;66471;56.532;21.020;2024-03-02T08:31:23;6.20;98.70
73438;DHT22;66471;56.532;21.020;2024-03-02T08:33:50;6.20;98.30
73438;DHT22;66471;56.532;21.020;2024-03-02T08:36:17;6.20;98.10
73438;DHT22;66471;56.532;21.020;2024-03-02T08:38:45;6.20;97.80
73438;DHT22;66471;56.532;21.020;2024-03-02T08:41:12;6.30;97.40
73438;DHT22;66471;56.532;21.020;2024-03-02T08:43:41;6.60;97.10
73438;DHT22;66471;56.532;21.020;2024-03-02T08:46:09;6.60;96.80
73438;DHT22;66471;56.532;21.020;2024-03-02T08:48:36;6.60;96.10
73438;DHT22;66471;56.532;21.020;2024-03-02T08:51:03;6.70;96.20
73438;DHT22;66471;56.532;21.020;2024-03-02T08:53:33;6.70;97.00
73438;DHT22;66471;56.532;21.020;2024-03-02T08:56:00;6.70;95.60
73438;DHT22;66471;56.532;21.020;2024-03-02T08:58:29;6.90;95.90
73438;DHT22;66471;56.532;21.020;2024-03-02T09:00:56;6.80;95.30
73438;DHT22;66471;56.532;21.020;2024-03-02T09:03:24;6.80;95.80
73438;DHT22;66471;56.532;21.020;2024-03-02T09:05:51;6.90;95.60
73438;DHT22;66471;56.532;21.020;2024-03-02T09:08:18;7.00;95.40
73438;DHT22;66471;56.532;21.020;2024-03-02T09:10:45;6.90;95.30
73438;DHT22;66471;56.532;21.020;2024-03-02T09:13:12;6.90;95.50
73438;DHT22;66471;56.532;21.020;2024-03-02T09:15:39;6.90;95.60
73438;DHT22;66471;56.532;21.020;2024-03-02T09:18:07;6.90;95.70
73438;DHT22;66471;56.532;21.020;2024-03-02T09:20:34;6.90;95.20
73438;DHT22;66471;56.532;21.020;2024-03-02T09:23:01;7.00;95.50
73438;DHT22;66471;56.532;21.020;2024-03-02T09:25:29;7.00;95.30
73438;DHT22;66471;56.532;21.020;2024-03-02T09:27:56;6.90;95.20
73438;DHT22;66471;56.532;21.020;2024-03-02T09:30:23;7.00;94.60
73438;DHT22;66471;56.532;21.020;2024-03-02T09:32:50;7.20;95.00
73438;DHT22;66471;56.532;21.020;2024-03-02T09:35:18;7.20;95.00
73438;DHT22;66471;56.532;21.020;2024-03-02T09:37:45;7.10;94.20
73438;DHT22;66471;56.532;21.020;2024-03-02T09:40:13;7.20;94.20
73438;DHT22;66471;56.532;21.020;2024-03-02T09:42:41;7.30;93.70
73438;DHT22;66471;56.532;21.020;2024-03-02T09:45:09;7.40;94.30
73438;DHT22;66471;56.532;21.020;2024-03-02T09:47:36;7.50;93.30
73438;DHT22;66471;56.532;21.020;2024-03-02T09:50:03;7.70;93.10
73438;DHT22;66471;56.532;21.020;2024-03-02T09:52:31;7.50;92.80
73438;DHT22;66471;56.532;21.020;2024-03-02T09:54:58;7.60;93.20
73438;DHT22;66471;56.532;21.020;2024-03-02T09:57:25;7.60;92.50
73438;DHT22;66471;56.532;21.020;2024-03-02T09:59:52;7.50;92.60
73438;DHT22;66471;56.532;21.020;2024-03-02T10:02:20;7.60;93.30
73438;DHT22;66471;56.532;21.020;2024-03-02T10:04:49;7.70;92.70
73438;DHT22;66471;56.532;21.020;2024-03-02T10:07:18;7.70;92.00
73438;DHT22;66471;56.532;21.020;2024-03-02T10:09:49;7.60;92.00
73438;DHT22;66471;56.532;21.020;2024-03-02T10:12:17;7.70;92.70
73438;DHT22;66471;56.532;21.020;2024-03-02T10:14:45;7.70;91.90
73438;DHT22;66471;56.532;21.020;2024-03-02T10:17:17;7.60;91.80
73438;DHT22;66471;56.532;21.020;2024-03-02T10:19:44;7.60;92.30
73438;DHT22;66471;56.532;21.020;2024-03-02T10:22:11;7.70;92.30
73438;DHT22;66471;56.532;21.020;2024-03-02T10:24:44;7.60;91.80
73438;DHT22;66471;56.532;21.020;2024-03-02T10:27:17;7.60;91.70
73438;DHT22;66471;56.532;21.020;2024-03-02T10:29:58;7.70;91.80
73438;DHT22;66471;56.532;21.020;2024-03-02T10:32:26;7.60;92.70
73438;DHT22;66471;56.532;21.020;2024-03-02T10:34:54;7.70;92.20
73438;DHT22;66471;56.532;21.020;2024-03-02T10:37:22;7.70;92.80
73438;DHT22;66471;56.532;21.020;2024-03-02T10:39:52;7.80;92.10
73438;DHT22;66471;56.532;21.020;2024-03-02T10:42:19;7.60;91.60
73438;DHT22;66471;56.532;21.020;2024-03-02T10:44:48;7.60;92.20
73438;DHT22;66471;56.532;21.020;2024-03-02T10:47:15;7.60;92.30
73438;DHT22;66471;56.532;21.020;2024-03-02T10:49:46;8.00;93.10
73438;DHT22;66471;56.532;21.020;2024-03-02T10:52:13;7.80;91.50
73438;DHT22;66471;56.532;21.020;2024-03-02T10:54:40;7.60;92.00
73438;DHT22;66471;56.532;21.020;2024-03-02T10:57:09;7.70;92.20
73438;DHT22;66471;56.532;21.020;2024-03-02T10:59:46;7.70;92.20
73438;DHT22;66471;56.532;21.020;2024-03-02T11:02:20;7.70;92.30
73438;DHT22;66471;56.532;21.020;2024-03-02T11:04:49;7.60;92.00
73438;DHT22;66471;56.532;21.020;2024-03-02T11:07:18;7.90;92.50
73438;DHT22;66471;56.532;21.020;2024-03-02T11:10:02;7.80;91.90
73438;DHT22;66471;56.532;21.020;2024-03-02T11:12:42;7.90;92.10
73438;DHT22;66471;56.532;21.020;2024-03-02T11:15:11;7.70;91.90
73438;DHT22;66471;56.532;21.020;2024-03-02T11:17:43;7.70;92.00
73438;DHT22;66471;56.532;21.020;2024-03-02T11:20:11;7.80;92.00
73438;DHT22;66471;56.532;21.020;2024-03-02T11:22:38;8.00;92.20
73438;DHT22;66471;56.532;21.020;2024-03-02T11:25:26;8.00;91.90
73438;DHT22;66471;56.532;21.020;2024-03-02T11:33:06;8.00;91.50
73438;DHT22;66471;56.532;21.020;2024-03-02T11:35:43;8.00;91.40
73438;DHT22;66471;56.532;21.020;2024-03-02T11:38:14;8.20;91.70
73438;DHT22;66471;56.532;21.020;2024-03-02T11:40:41;8.10;92.20
73438;DHT22;66471;56.532;21.020;2024-03-02T11:43:09;8.00;91.30
73438;DHT22;66471;56.532;21.020;2024-03-02T11:45:37;8.00;91.80
73438;DHT22;66471;56.532;21.020;2024-03-02T11:48:11;8.00;92.00
73438;DHT22;66471;56.532;21.020;2024-03-02T11:50:47;7.90;91.90
73438;DHT22;66471;56.532;21.020;2024-03-02T11:53:17;8.00;92.30
73438;DHT22;66471;56.532;21.020;2024-03-02T11:55:45;7.90;92.70
73438;DHT22;66471;56.532;21.020;2024-03-02T11:58:16;7.90;92.40
73438;DHT22;66471;56.532;21.020;2024-03-02T12:00:44;8.00;92.00
73438;DHT22;66471;56.532;21.020;2024-03-02T12:03:15;7.80;92.60
73438;DHT22;66471;56.532;21.020;2024-03-02T12:05:42;8.00;92.50
73438;DHT22;66471;56.532;21.020;2024-03-02T12:08:11;7.90;92.20
73438;DHT22;66471;56.532;21.020;2024-03-02T12:10:39;8.10;92.30
73438;DHT22;66471;56.532;21.020;2024-03-02T12:13:07;8.30;92.50
73438;DHT22;66471;56.532;21.020;2024-03-02T12:15:38;8.20;91.50
73438;DHT22;66471;56.532;21.020;2024-03-02T12:18:06;8.30;92.00
73438;DHT22;66471;56.532;21.020;2024-03-02T12:20:33;8.10;92.10
73438;DHT22;66471;56.532;21.020;2024-03-02T12:23:02;8.30;92.10
73438;DHT22;66471;56.532;21.020;2024-03-02T12:25:30;8.30;92.00
73438;DHT22;66471;56.532;21.020;2024-03-02T12:28:00;8.30;91.30
73438;DHT22;66471;56.532;21.020;2024-03-02T12:30:30;8.30;91.60
73438;DHT22;66471;56.532;21.020;2024-03-02T12:32:57;8.30;91.20
73438;DHT22;66471;56.532;21.020;2024-03-02T12:35:25;8.30;92.20
73438;DHT22;66471;56.532;21.020;2024-03-02T12:37:53;8.20;91.80
73438;DHT22;66471;56.532;21.020;2024-03-02T12:40:21;8.20;92.60
73438;DHT22;66471;56.532;21.020;2024-03-02T12:42:50;8.30;92.30
73438;DHT22;66471;56.532;21.020;2024-03-02T12:45:18;8.30;92.20
73438;DHT22;66471;56.532;21.020;2024-03-02T12:47:52;8.20;92.50
73438;DHT22;66471;56.532;21.020;2024-03-02T12:50:20;8.00;92.30
73438;DHT22;66471;56.532;21.020;2024-03-02T12:52:55;8.10;92.50
73438;DHT22;66471;56.532;21.020;2024-03-02T12:55:23;8.00;92.70
73438;DHT22;66471;56.532;21.020;2024-03-02T12:57:51;8.00;92.50
73438;DHT22;66471;56.532;21.020;2024-03-02T13:00:20;8.30;92.80
73438;DHT22;66471;56.532;21.020;2024-03-02T13:02:50;8.20;92.30
73438;DHT22;66471;56.532;21.020;2024-03-02T13:05:18;8.20;92.80
73438;DHT22;66471;56.532;21.020;2024-03-02T13:07:50;8.20;92.60
73438;DHT22;66471;56.532;21.020;2024-03-02T13:10:17;8.30;92.50
73438;DHT22;66471;56.532;21.020;2024-03-02T13:12:45;8.40;92.10
73438;DHT22;66471;56.532;21.020;2024-03-02T13:15:13;8.40;92.10
73438;DHT22;66471;56.532;21.020;2024-03-02T13:17:46;8.40;91.90
73438;DHT22;66471;56.532;21.020;2024-03-02T13:20:15;8.50;92.30
73438;DHT22;66471;56.532;21.020;2024-03-02T13:22:44;8.40;91.30
73438;DHT22;66471;56.532;21.020;2024-03-02T13:25:11;8.30;92.10
73438;DHT22;66471;56.532;21.020;2024-03-02T13:27:39;8.30;91.70
73438;DHT22;66471;56.532;21.020;2024-03-02T13:30:09;8.50;91.50
73438;DHT22;66471;56.532;21.020;2024-03-02T13:32:36;8.50;92.00
73438;DHT22;66471;56.532;21.020;2024-03-02T13:35:04;8.50;91.70
73438;DHT22;66471;56.532;21.020;2024-03-02T13:37:32;8.40;91.50
73438;DHT22;66471;56.532;21.020;2024-03-02T13:39:59;8.20;91.70
73438;DHT22;66471;56.532;21.020;2024-03-02T13:42:26;8.30;91.60
73438;DHT22;66471;56.532;21.020;2024-03-02T13:44:54;8.40;91.40
73438;DHT22;66471;56.532;21.020;2024-03-02T13:47:22;8.50;91.50
73438;DHT22;66471;56.532;21.020;2024-03-02T13:49:49;8.50;91.30
73438;DHT22;66471;56.532;21.020;2024-03-02T13:52:17;8.50;91.40
73438;DHT22;66471;56.532;21.020;2024-03-02T13:54:46;8.60;91.30
73438;DHT22;66471;56.532;21.020;2024-03-02T13:57:15;8.50;91.00
73438;DHT22;66471;56.532;21.020;2024-03-02T13:59:55;8.60;90.90
73438;DHT22;66471;56.532;21.020;2024-03-02T14:02:27;8.50;90.90
73438;DHT22;66471;56.532;21.020;2024-03-02T14:04:56;8.50;91.10
73438;DHT22;66471;56.532;21.020;2024-03-02T14:07:25;8.60;90.80
73438;DHT22;66471;56.532;21.020;2024-03-02T14:09:52;8.60;90.90
73438;DHT22;66471;56.532;21.020;2024-03-02T14:12:19;8.70;91.20
73438;DHT22;66471;56.532;21.020;2024-03-02T14:14:47;8.60;91.10
73438;DHT22;66471;56.532;21.020;2024-03-02T14:17:14;8.50;91.20
73438;DHT22;66471;56.532;21.020;2024-03-02T14:19:42;8.60;91.30
73438;DHT22;66471;56.532;21.020;2024-03-02T14:22:10;8.50;91.40
73438;DHT22;66471;56.532;21.020;2024-03-02T14:24:40;8.60;91.10
73438;DHT22;66471;56.532;21.020;2024-03-02T14:27:07;8.60;91.30
73438;DHT22;66471;56.532;21.020;2024-03-02T14:29:51;8.60;91.70
73438;DHT22;66471;56.532;21.020;2024-03-02T14:32:18;8.50;91.90
73438;DHT22;66471;56.532;21.020;2024-03-02T14:34:45;8.50;91.80
73438;DHT22;66471;56.532;21.020;2024-03-02T14:37:17;8.50;91.50
73438;DHT22;66471;56.532;21.020;2024-03-02T14:39:44;8.50;91.60
73438;DHT22;66471;56.532;21.020;2024-03-02T14:42:11;8.60;91.60
73438;DHT22;66471;56.532;21.020;2024-03-02T14:44:38;8.60;91.60
73438;DHT22;66471;56.532;21.020;2024-03-02T14:47:06;8.50;91.70
73438;DHT22;66471;56.532;21.020;2024-03-02T14:49:34;8.60;91.60
73438;DHT22;66471;56.532;21.020;2024-03-02T14:52:05;8.60;91.70
73438;DHT22;66471;56.532;21.020;2024-03-02T14:54:32;8.50;91.70
73438;DHT22;66471;56.532;21.020;2024-03-02T14:57:02;8.50;91.70
73438;DHT22;66471;56.532;21.020;2024-03-02T14:59:30;8.50;91.60
73438;DHT22;66471;56.532;21.020;2024-03-02T15:01:57;8.60;91.90
73438;DHT22;66471;56.532;21.020;2024-03-02T15:04:24;8.40;91.80
73438;DHT22;66471;56.532;21.020;2024-03-02T15:06:51;8.50;92.00
73438;DHT22;66471;56.532;21.020;2024-03-02T15:09:18;8.50;91.70
73438;DHT22;66471;56.532;21.020;2024-03-02T15:11:46;8.50;91.50
73438;DHT22;66471;56.532;21.020;2024-03-02T15:14:13;8.50;91.70
73438;DHT22;66471;56.532;21.020;2024-03-02T15:16:42;8.50;91.70
73438;DHT22;66471;56.532;21.020;2024-03-02T15:19:09;8.40;92.20
73438;DHT22;66471;56.532;21.020;2024-03-02T15:21:36;8.40;91.80
73438;DHT22;66471;56.532;21.020;2024-03-02T15:24:04;8.50;91.80
73438;DHT22;66471;56.532;21.020;2024-03-02T15:26:32;8.50;92.10
73438;DHT22;66471;56.532;21.020;2024-03-02T15:29:00;8.40;91.60
73438;DHT22;66471;56.532;21.020;2024-03-02T15:31:29;8.50;92.10
73438;DHT22;66471;56.532;21.020;2024-03-02T15:33:56;8.40;91.90
73438;DHT22;66471;56.532;21.020;2024-03-02T15:36:25;8.50;92.60
73438;DHT22;66471;56.532;21.020;2024-03-02T15:38:52;8.30;92.20
73438;DHT22;66471;56.532;21.020;2024-03-02T15:41:23;8.40;92.40
73438;DHT22;66471;56.532;21.020;2024-03-02T15:43:50;8.40;92.40
73438;DHT22;66471;56.532;21.020;2024-03-02T15:46:17;8.30;92.40
73438;DHT22;66471;56.532;21.020;2024-03-02T15:48:44;8.30;92.60
73438;DHT22;66471;56.532;21.020;2024-03-02T15:51:12;8.30;92.30
73438;DHT22;66471;56.532;21.020;2024-03-02T15:53:39;8.30;92.70
73438;DHT22;66471;56.532;21.020;2024-03-02T15:56:08;8.30;92.40
73438;DHT22;66471;56.532;21.020;2024-03-02T15:58:36;8.40;92.60
73438;DHT22;66471;56.532;21.020;2024-03-02T16:01:05;8.40;92.50
73438;DHT22;66471;56.532;21.020;2024-03-02T16:03:34;8.40;92.30
73438;DHT22;66471;56.532;21.020;2024-03-02T16:06:02;8.30;92.30
73438;DHT22;66471;56.532;21.020;2024-03-02T16:08:30;8.30;92.70
73438;DHT22;66471;56.532;21.020;2024-03-02T16:10:57;8.30;92.90
73438;DHT22;66471;56.532;21.020;2024-03-02T16:13:27;8.30;92.50
73438;DHT22;66471;56.532;21.020;2024-03-02T16:15:55;8.30;92.60
73438;DHT22;66471;56.532;21.020;2024-03-02T16:18:23;8.20;92.80
73438;DHT22;66471;56.532;21.020;2024-03-02T16:20:50;8.20;93.00
73438;DHT22;66471;56.532;21.020;2024-03-02T16:23:17;8.20;93.30
73438;DHT22;66471;56.532;21.020;2024-03-02T16:25:44;8.10;93.10
73438;DHT22;66471;56.532;21.020;2024-03-02T16:28:12;8.00;93.40
73438;DHT22;66471;56.532;21.020;2024-03-02T16:30:39;8.20;92.90
73438;DHT22;66471;56.532;21.020;2024-03-02T16:33:06;8.20;92.90
73438;DHT22;66471;56.532;21.020;2024-03-02T16:35:34;8.10;93.60
73438;DHT22;66471;56.532;21.020;2024-03-02T16:38:01;8.00;93.40
73438;DHT22;66471;56.532;21.020;2024-03-02T16:40:28;8.10;93.40
73438;DHT22;66471;56.532;21.020;2024-03-02T16:42:57;8.10;93.40
73438;DHT22;66471;56.532;21.020;2024-03-02T16:45:25;7.90;93.60
73438;DHT22;66471;56.532;21.020;2024-03-02T16:47:52;7.90;93.50
73438;DHT22;66471;56.532;21.020;2024-03-02T16:50:20;7.90;93.50
73438;DHT22;66471;56.532;21.020;2024-03-02T16:52:47;7.80;93.60
73438;DHT22;66471;56.532;21.020;2024-03-02T16:55:14;7.80;93.20
73438;DHT22;66471;56.532;21.020;2024-03-02T16:57:41;8.00;93.20
73438;DHT22;66471;56.532;21.020;2024-03-02T17:00:09;7.90;93.70
73438;DHT22;66471;56.532;21.020;2024-03-02T17:02:37;7.90;93.20
73438;DHT22;66471;56.532;21.020;2024-03-02T17:05:04;7.80;93.10
73438;DHT22;66471;56.532;21.020;2024-03-02T17:07:31;7.80;93.40
73438;DHT22;66471;56.532;21.020;2024-03-02T17:09:59;7.80;93.20
73438;DHT22;66471;56.532;21.020;2024-03-02T17:12:26;7.90;93.50
73438;DHT22;66471;56.532;21.020;2024-03-02T17:14:53;7.90;93.40
73438;DHT22;66471;56.532;21.020;2024-03-02T17:17:21;7.80;93.80
73438;DHT22;66471;56.532;21.020;2024-03-02T17:19:48;7.80;93.60
73438;DHT22;66471;56.532;21.020;2024-03-02T17:22:15;7.80;93.60
73438;DHT22;66471;56.532;21.020;2024-03-02T17:24:44;7.80;93.80
73438;DHT22;66471;56.532;21.020;2024-03-02T17:27:11;7.80;93.20
73438;DHT22;66471;56.532;21.020;2024-03-02T17:29:38;7.90;93.30
73438;DHT22;66471;56.532;21.020;2024-03-02T17:32:06;7.80;93.10
73438;DHT22;66471;56.532;21.020;2024-03-02T17:34:33;7.80;93.30
73438;DHT22;66471;56.532;21.020;2024-03-02T17:37:08;7.80;93.20
73438;DHT22;66471;56.532;21.020;2024-03-02T17:39:42;7.80;92.70
73438;DHT22;66471;56.532;21.020;2024-03-02T17:42:09;7.80;93.40
73438;DHT22;66471;56.532;21.020;2024-03-02T17:44:37;7.80;92.70
73438;DHT22;66471;56.532;21.020;2024-03-02T17:47:05;7.80;92.60
73438;DHT22;66471;56.532;21.020;2024-03-02T17:49:32;7.80;92.20
73438;DHT22;66471;56.532;21.020;2024-03-02T17:52:00;7.80;92.50
73438;DHT22;66471;56.532;21.020;2024-03-02T17:54:28;7.90;92.80
73438;DHT22;66471;56.532;21.020;2024-03-02T17:56:55;7.80;92.80
73438;DHT22;66471;56.532;21.020;2024-03-02T17:59:23;7.60;92.90
